createdAt,value
2017-12-10T00:00:18.086Z,1002.44
2017-12-10T00:01:18.097Z,1002.45
2017-12-10T00:03:11.245Z,1002.40
2017-12-10T00:04:11.253Z,1002.40
2017-12-10T00:06:04.408Z,1002.36
2017-12-10T00:07:04.409Z,1002.30
2017-12-10T00:08:57.585Z,1002.32
2017-12-10T00:09:57.570Z,1002.30
2017-12-10T00:11:50.723Z,1002.26
2017-12-10T00:12:50.720Z,1002.26
2017-12-10T00:14:43.872Z,1002.20
2017-12-10T00:15:43.886Z,1002.20
2017-12-10T00:17:37.046Z,1002.23
2017-12-10T00:18:37.042Z,1002.25
2017-12-10T00:20:30.212Z,1002.21
2017-12-10T00:21:30.202Z,1002.22
2017-12-10T00:23:23.357Z,1002.18
2017-12-10T00:24:23.361Z,1002.20
2017-12-10T00:26:16.533Z,1002.19
2017-12-10T00:27:16.545Z,1002.20
2017-12-10T00:29:09.712Z,1002.22
2017-12-10T00:30:09.714Z,1002.21
2017-12-10T00:32:02.859Z,1002.21
2017-12-10T00:33:02.876Z,1002.18
2017-12-10T00:34:56.029Z,1002.18
2017-12-10T00:35:56.037Z,1002.16
2017-12-10T00:38:00.873Z,1002.17
2017-12-10T00:39:00.874Z,1002.14
2017-12-10T00:40:54.032Z,1002.13
2017-12-10T00:41:54.032Z,1002.13
2017-12-10T00:43:47.195Z,1002.13
2017-12-10T00:44:47.189Z,1002.17
2017-12-10T00:46:40.358Z,1002.14
2017-12-10T00:47:40.343Z,1002.17
2017-12-10T00:49:33.520Z,1002.18
2017-12-10T00:50:33.519Z,1002.15
2017-12-10T00:52:26.765Z,1002.19
2017-12-10T00:53:26.678Z,1002.17
2017-12-10T00:55:19.830Z,1002.14
2017-12-10T00:56:19.837Z,1002.11
2017-12-10T00:58:12.988Z,1002.16
2017-12-10T00:59:12.994Z,1002.14
2017-12-10T01:01:06.138Z,1002.10
2017-12-10T01:02:06.144Z,1002.11
2017-12-10T01:03:59.291Z,1002.11
2017-12-10T01:04:59.306Z,1002.07
2017-12-10T01:06:52.452Z,1002.11
2017-12-10T01:07:52.453Z,1002.08
2017-12-10T01:09:45.619Z,1002.05
2017-12-10T01:10:45.616Z,1002.09
2017-12-10T01:12:38.758Z,1002.05
2017-12-10T01:13:38.781Z,1001.99
2017-12-10T01:15:31.941Z,1002.01
2017-12-10T01:16:31.952Z,1002.03
2017-12-10T01:18:25.101Z,1002.00
2017-12-10T01:19:25.120Z,1002.03
2017-12-10T01:21:18.262Z,1002.04
2017-12-10T01:22:18.262Z,1002.03
2017-12-10T01:24:11.404Z,1002.00
2017-12-10T01:25:11.415Z,1002.03
2017-12-10T01:27:04.577Z,1002.02
2017-12-10T01:28:04.587Z,1001.98
2017-12-10T01:29:57.736Z,1001.93
2017-12-10T01:30:57.759Z,1001.92
2017-12-10T01:32:50.912Z,1001.83
2017-12-10T01:33:50.906Z,1001.83
2017-12-10T01:35:44.075Z,1001.78
2017-12-10T01:36:44.079Z,1001.79
2017-12-10T01:38:37.208Z,1001.78
2017-12-10T01:39:37.222Z,1001.77
2017-12-10T01:41:30.381Z,1001.72
2017-12-10T01:42:30.381Z,1001.76
2017-12-10T01:44:23.531Z,1001.73
2017-12-10T01:45:23.553Z,1001.81
2017-12-10T01:47:16.708Z,1001.79
2017-12-10T01:48:16.700Z,1001.77
2017-12-10T01:50:09.845Z,1001.78
2017-12-10T01:51:09.856Z,1001.74
2017-12-10T01:53:03.041Z,1001.70
2017-12-10T01:54:03.035Z,1001.77
2017-12-10T01:55:56.185Z,1001.76
2017-12-10T01:56:56.174Z,1001.74
2017-12-10T01:58:49.359Z,1001.71
2017-12-10T01:59:49.366Z,1001.66
2017-12-10T02:01:42.565Z,1001.64
2017-12-10T02:02:42.495Z,1001.68
2017-12-10T02:04:35.645Z,1001.64
2017-12-10T02:05:35.652Z,1001.62
2017-12-10T02:07:28.796Z,1001.63
2017-12-10T02:08:28.790Z,1001.56
2017-12-10T02:10:21.942Z,1001.53
2017-12-10T02:11:21.946Z,1001.55
2017-12-10T02:13:15.100Z,1001.51
2017-12-10T02:14:15.110Z,1001.53
2017-12-10T02:16:08.250Z,1001.54
2017-12-10T02:17:08.263Z,1001.55
2017-12-10T02:19:01.450Z,1001.52
2017-12-10T02:20:01.452Z,1001.53
2017-12-10T02:21:54.599Z,1001.46
2017-12-10T02:22:54.616Z,1001.46
2017-12-10T02:25:05.116Z,1001.45
2017-12-10T02:26:05.110Z,1001.40
2017-12-10T02:27:58.248Z,1001.37
2017-12-10T02:28:58.252Z,1001.32
2017-12-10T02:30:51.395Z,1001.25
2017-12-10T02:31:51.413Z,1001.27
2017-12-10T02:33:58.861Z,1001.24
2017-12-10T02:34:58.865Z,1001.25
2017-12-10T02:36:51.998Z,1001.24
2017-12-10T02:37:52.013Z,1001.18
2017-12-10T02:39:45.178Z,1001.20
2017-12-10T02:40:45.175Z,1001.17
2017-12-10T02:42:38.400Z,1001.17
2017-12-10T02:43:38.340Z,1001.14
2017-12-10T02:45:31.485Z,1001.13
2017-12-10T02:46:31.492Z,1001.04
2017-12-10T02:48:24.620Z,1000.98
2017-12-10T02:49:24.643Z,1000.99
2017-12-10T02:51:17.817Z,1000.99
2017-12-10T02:52:17.812Z,1000.97
2017-12-10T02:54:10.933Z,1000.95
2017-12-10T02:55:10.946Z,1000.95
2017-12-10T02:57:04.110Z,1000.93
2017-12-10T02:58:04.109Z,1000.93
2017-12-10T02:59:57.273Z,1000.80
2017-12-10T03:00:57.277Z,1000.85
2017-12-10T03:02:50.417Z,1000.81
2017-12-10T03:03:50.440Z,1000.79
2017-12-10T03:05:43.663Z,1000.78
2017-12-10T03:06:43.588Z,1000.75
2017-12-10T03:08:36.856Z,1000.70
2017-12-10T03:09:36.748Z,1000.68
2017-12-10T03:11:29.921Z,1000.65
2017-12-10T03:12:29.918Z,1000.68
2017-12-10T03:14:23.063Z,1000.71
2017-12-10T03:15:23.079Z,1000.64
2017-12-10T03:17:16.265Z,1000.64
2017-12-10T03:18:16.264Z,1000.64
2017-12-10T03:20:09.429Z,1000.65
2017-12-10T03:21:09.440Z,1000.65
2017-12-10T03:23:02.620Z,1000.64
2017-12-10T03:24:02.612Z,1000.61
2017-12-10T03:25:55.749Z,1000.65
2017-12-10T03:26:55.757Z,1000.62
2017-12-10T03:28:48.942Z,1000.61
2017-12-10T03:29:48.931Z,1000.61
2017-12-10T03:31:42.080Z,1000.61
2017-12-10T03:32:42.074Z,1000.62
2017-12-10T03:34:35.240Z,1000.57
2017-12-10T03:35:35.244Z,1000.52
2017-12-10T03:37:28.390Z,1000.56
2017-12-10T03:38:29.134Z,1000.54
2017-12-10T03:40:21.587Z,1000.47
2017-12-10T03:41:21.598Z,1000.44
2017-12-10T03:43:14.757Z,1000.40
2017-12-10T03:44:14.756Z,1000.41
2017-12-10T03:46:07.912Z,1000.40
2017-12-10T03:47:07.913Z,1000.36
2017-12-10T03:49:01.075Z,1000.38
2017-12-10T03:50:01.077Z,1000.32
2017-12-10T03:51:54.229Z,1000.32
2017-12-10T03:52:54.238Z,1000.27
2017-12-10T03:54:47.390Z,1000.21
2017-12-10T03:55:47.393Z,1000.23
2017-12-10T03:57:40.583Z,1000.24
2017-12-10T03:58:40.558Z,1000.21
2017-12-10T04:00:33.758Z,1000.21
2017-12-10T04:01:33.749Z,1000.22
2017-12-10T04:03:26.886Z,1000.19
2017-12-10T04:04:26.986Z,1000.22
2017-12-10T04:06:20.105Z,1000.17
2017-12-10T04:07:20.045Z,1000.14
2017-12-10T04:09:13.194Z,1000.11
2017-12-10T04:10:13.196Z,1000.11
2017-12-10T04:12:23.643Z,1000.11
2017-12-10T04:13:23.674Z,1000.10
2017-12-10T04:15:16.820Z,1000.12
2017-12-10T04:16:16.827Z,1000.09
2017-12-10T04:18:24.318Z,1000.07
2017-12-10T04:19:24.307Z,1000.06
2017-12-10T04:21:31.800Z,1000.05
2017-12-10T04:22:31.809Z,1000.13
2017-12-10T04:24:24.977Z,1000.13
2017-12-10T04:25:24.957Z,1000.09
2017-12-10T04:27:18.111Z,1000.01
2017-12-10T04:28:18.115Z,1000.09
2017-12-10T04:30:11.296Z,1000.14
2017-12-10T04:31:11.298Z,1000.17
2017-12-10T04:33:04.487Z,1000.13
2017-12-10T04:34:04.430Z,1000.07
2017-12-10T04:35:57.606Z,1000.02
2017-12-10T04:36:57.600Z,1000.00
2017-12-10T04:38:50.760Z,1000.00
2017-12-10T04:39:50.746Z,999.97
2017-12-10T04:41:43.903Z,999.96
2017-12-10T04:42:43.909Z,999.95
2017-12-10T04:44:37.073Z,999.96
2017-12-10T04:45:37.065Z,999.91
2017-12-10T04:47:30.208Z,999.90
2017-12-10T04:48:30.229Z,999.97
2017-12-10T04:50:23.381Z,999.90
2017-12-10T04:51:23.392Z,999.92
2017-12-10T04:53:16.529Z,999.86
2017-12-10T04:54:16.553Z,999.83
2017-12-10T04:56:09.718Z,999.88
2017-12-10T04:57:09.720Z,999.80
2017-12-10T04:59:02.845Z,999.82
2017-12-10T05:00:02.857Z,999.79
2017-12-10T05:01:56.016Z,999.81
2017-12-10T05:02:56.028Z,999.80
2017-12-10T05:04:49.200Z,999.79
2017-12-10T05:05:49.211Z,999.76
2017-12-10T05:07:42.387Z,999.71
2017-12-10T05:08:42.393Z,999.73
2017-12-10T05:10:35.592Z,999.71
2017-12-10T05:11:35.596Z,999.70
2017-12-10T05:13:28.723Z,999.63
2017-12-10T05:14:28.727Z,999.69
2017-12-10T05:16:21.888Z,999.63
2017-12-10T05:17:21.886Z,999.57
2017-12-10T05:19:15.049Z,999.53
2017-12-10T05:20:15.055Z,999.57
2017-12-10T05:22:08.216Z,999.50
2017-12-10T05:23:08.215Z,999.52
2017-12-10T05:25:01.380Z,999.48
2017-12-10T05:26:01.393Z,999.50
2017-12-10T05:27:54.539Z,999.45
2017-12-10T05:28:54.542Z,999.44
2017-12-10T05:30:47.721Z,999.45
2017-12-10T05:31:47.739Z,999.37
2017-12-10T05:33:40.894Z,999.36
2017-12-10T05:34:40.899Z,999.29
2017-12-10T05:36:34.053Z,999.29
2017-12-10T05:37:34.053Z,999.26
2017-12-10T05:39:27.202Z,999.26
2017-12-10T05:40:27.214Z,999.24
2017-12-10T05:42:20.372Z,999.20
2017-12-10T05:43:20.369Z,999.20
2017-12-10T05:45:13.500Z,999.22
2017-12-10T05:46:13.518Z,999.27
2017-12-10T05:48:06.648Z,999.21
2017-12-10T05:49:06.653Z,999.21
2017-12-10T05:50:59.792Z,999.18
2017-12-10T05:51:59.808Z,999.17
2017-12-10T05:53:52.982Z,999.12
2017-12-10T05:54:52.969Z,999.15
2017-12-10T05:56:46.112Z,999.09
2017-12-10T05:57:46.125Z,999.04
2017-12-10T05:59:39.283Z,999.02
2017-12-10T06:00:39.285Z,998.98
2017-12-10T06:02:32.434Z,998.90
2017-12-10T06:03:32.445Z,998.93
2017-12-10T06:05:25.597Z,998.90
2017-12-10T06:06:25.601Z,998.94
2017-12-10T06:08:18.831Z,998.93
2017-12-10T06:09:18.761Z,998.91
2017-12-10T06:11:11.917Z,998.91
2017-12-10T06:12:11.917Z,998.91
2017-12-10T06:14:05.075Z,998.89
2017-12-10T06:15:05.078Z,998.84
2017-12-10T06:16:58.253Z,998.81
2017-12-10T06:17:58.275Z,998.77
2017-12-10T06:19:51.413Z,998.67
2017-12-10T06:20:51.412Z,998.66
2017-12-10T06:22:44.575Z,998.63
2017-12-10T06:23:44.581Z,998.55
2017-12-10T06:25:37.731Z,998.49
2017-12-10T06:26:37.729Z,998.50
2017-12-10T06:28:48.212Z,998.43
2017-12-10T06:29:48.212Z,998.38
2017-12-10T06:31:41.351Z,998.33
2017-12-10T06:32:41.366Z,998.33
2017-12-10T06:34:34.522Z,998.27
2017-12-10T06:35:34.520Z,998.33
2017-12-10T06:37:27.661Z,998.26
2017-12-10T06:38:27.672Z,998.24
2017-12-10T06:40:35.168Z,998.28
2017-12-10T06:41:35.180Z,998.23
2017-12-10T06:43:28.328Z,998.23
2017-12-10T06:44:28.301Z,998.29
2017-12-10T06:46:21.499Z,998.24
2017-12-10T06:47:21.491Z,998.30
2017-12-10T06:49:14.648Z,998.20
2017-12-10T06:50:14.650Z,998.19
2017-12-10T06:52:07.818Z,998.10
2017-12-10T06:53:07.826Z,998.13
2017-12-10T06:55:00.982Z,998.04
2017-12-10T06:56:00.986Z,998.07
2017-12-10T06:57:54.142Z,997.95
2017-12-10T06:58:54.155Z,997.96
2017-12-10T07:00:47.301Z,997.96
2017-12-10T07:01:47.302Z,997.95
2017-12-10T07:03:40.430Z,997.90
2017-12-10T07:04:40.442Z,997.91
2017-12-10T07:06:33.640Z,997.90
2017-12-10T07:07:33.655Z,997.96
2017-12-10T07:09:26.788Z,997.92
2017-12-10T07:10:26.791Z,997.91
2017-12-10T07:12:19.924Z,997.93
2017-12-10T07:13:19.938Z,997.89
2017-12-10T07:15:13.092Z,997.92
2017-12-10T07:16:13.082Z,997.87
2017-12-10T07:18:06.224Z,997.82
2017-12-10T07:19:06.237Z,997.80
2017-12-10T07:20:59.408Z,997.69
2017-12-10T07:21:59.390Z,997.66
2017-12-10T07:23:52.546Z,997.62
2017-12-10T07:24:52.553Z,997.61
2017-12-10T07:26:45.774Z,997.59
2017-12-10T07:27:45.755Z,997.59
2017-12-10T07:29:38.900Z,997.59
2017-12-10T07:30:38.915Z,997.58
2017-12-10T07:32:32.084Z,997.56
2017-12-10T07:33:32.090Z,997.55
2017-12-10T07:35:25.260Z,997.49
2017-12-10T07:36:25.261Z,997.45
2017-12-10T07:38:18.408Z,997.40
2017-12-10T07:39:18.420Z,997.34
2017-12-10T07:41:11.588Z,997.29
2017-12-10T07:42:11.579Z,997.29
2017-12-10T07:44:04.732Z,997.27
2017-12-10T07:45:04.777Z,997.25
2017-12-10T07:46:57.887Z,997.22
2017-12-10T07:47:57.881Z,997.20
2017-12-10T07:49:51.054Z,997.21
2017-12-10T07:50:51.055Z,997.19
2017-12-10T07:52:44.208Z,997.18
2017-12-10T07:53:44.215Z,997.24
2017-12-10T07:55:51.673Z,997.19
2017-12-10T07:56:51.681Z,997.18
2017-12-10T07:58:44.894Z,997.13
2017-12-10T07:59:44.859Z,997.14
2017-12-10T08:01:38.024Z,997.06
2017-12-10T08:02:38.016Z,997.05
2017-12-10T08:04:31.181Z,997.06
2017-12-10T08:05:31.192Z,997.00
2017-12-10T08:07:24.350Z,997.01
2017-12-10T08:08:24.354Z,997.01
2017-12-10T08:10:17.481Z,996.97
2017-12-10T08:11:17.504Z,996.91
2017-12-10T08:13:10.670Z,996.89
2017-12-10T08:14:10.660Z,996.93
2017-12-10T08:16:03.812Z,996.89
2017-12-10T08:17:03.827Z,996.90
2017-12-10T08:18:56.995Z,996.94
2017-12-10T08:19:56.979Z,996.97
2017-12-10T08:21:50.128Z,996.94
2017-12-10T08:22:50.141Z,996.89
2017-12-10T08:24:43.282Z,996.83
2017-12-10T08:25:43.285Z,996.80
2017-12-10T08:27:36.449Z,996.78
2017-12-10T08:28:36.453Z,996.74
2017-12-10T08:30:29.685Z,996.70
2017-12-10T08:31:29.694Z,996.63
2017-12-10T08:33:22.865Z,996.59
2017-12-10T08:34:22.864Z,996.59
2017-12-10T08:36:16.022Z,996.59
2017-12-10T08:37:16.031Z,996.65
2017-12-10T08:39:09.188Z,996.57
2017-12-10T08:40:09.189Z,996.54
2017-12-10T08:42:02.416Z,996.58
2017-12-10T08:43:02.406Z,996.59
2017-12-10T08:44:55.559Z,996.56
2017-12-10T08:45:55.553Z,996.57
2017-12-10T08:47:48.687Z,996.60
2017-12-10T08:48:48.685Z,996.56
2017-12-10T08:50:41.849Z,996.49
2017-12-10T08:51:41.868Z,996.42
2017-12-10T08:53:35.019Z,996.46
2017-12-10T08:54:35.011Z,996.45
2017-12-10T08:56:28.148Z,996.40
2017-12-10T08:57:28.159Z,996.33
2017-12-10T08:59:21.319Z,996.30
2017-12-10T09:00:21.319Z,996.35
2017-12-10T09:02:15.218Z,996.26
2017-12-10T09:03:14.482Z,996.26
2017-12-10T09:05:07.642Z,996.24
2017-12-10T09:06:07.636Z,996.11
2017-12-10T09:08:00.850Z,996.06
2017-12-10T09:09:00.805Z,996.10
2017-12-10T09:10:53.934Z,996.01
2017-12-10T09:11:53.955Z,996.00
2017-12-10T09:13:47.107Z,995.93
2017-12-10T09:14:47.101Z,995.89
2017-12-10T09:16:40.245Z,995.89
2017-12-10T09:17:40.255Z,995.84
2017-12-10T09:19:33.416Z,995.82
2017-12-10T09:20:33.405Z,995.81
2017-12-10T09:22:26.685Z,995.78
2017-12-10T09:23:26.763Z,995.76
2017-12-10T09:25:19.753Z,995.73
2017-12-10T09:26:19.759Z,995.70
2017-12-10T09:28:12.932Z,995.68
2017-12-10T09:29:12.930Z,995.61
2017-12-10T09:31:23.387Z,995.54
2017-12-10T09:32:23.386Z,995.47
2017-12-10T09:34:16.550Z,995.45
2017-12-10T09:35:16.550Z,995.45
2017-12-10T09:37:24.025Z,995.49
2017-12-10T09:38:24.023Z,995.48
2017-12-10T09:40:17.173Z,995.46
2017-12-10T09:41:17.160Z,995.45
2017-12-10T09:43:10.318Z,995.38
2017-12-10T09:44:10.317Z,995.31
2017-12-10T09:46:03.482Z,995.26
2017-12-10T09:47:03.488Z,995.19
2017-12-10T09:48:56.624Z,995.20
2017-12-10T09:49:56.632Z,995.20
2017-12-10T09:51:49.796Z,995.08
2017-12-10T09:52:49.799Z,995.08
2017-12-10T09:54:42.950Z,994.98
2017-12-10T09:55:42.949Z,994.97
2017-12-10T09:57:36.094Z,994.93
2017-12-10T09:58:36.122Z,994.88
2017-12-10T10:00:29.456Z,994.87
2017-12-10T10:01:29.458Z,994.84
2017-12-10T10:03:22.394Z,994.76
2017-12-10T10:04:22.405Z,994.69
2017-12-10T10:06:15.572Z,994.66
2017-12-10T10:07:15.579Z,994.69
2017-12-10T10:09:08.836Z,994.70
2017-12-10T10:10:08.738Z,994.56
2017-12-10T10:12:19.202Z,994.55
2017-12-10T10:13:19.201Z,994.52
2017-12-10T10:15:12.362Z,994.45
2017-12-10T10:16:12.353Z,994.42
2017-12-10T10:18:05.519Z,994.29
2017-12-10T10:19:05.512Z,994.31
2017-12-10T10:20:58.679Z,994.23
2017-12-10T10:21:58.674Z,994.22
2017-12-10T10:23:51.820Z,994.20
2017-12-10T10:24:51.832Z,994.13
2017-12-10T10:26:45.116Z,994.10
2017-12-10T10:27:45.000Z,994.07
2017-12-10T10:29:38.153Z,993.95
2017-12-10T10:30:38.171Z,993.80
2017-12-10T10:32:31.322Z,993.79
2017-12-10T10:33:31.306Z,993.82
2017-12-10T10:35:24.466Z,993.70
2017-12-10T10:36:24.486Z,993.64
2017-12-10T10:38:17.640Z,993.56
2017-12-10T10:39:17.649Z,993.61
2017-12-10T10:41:10.774Z,993.54
2017-12-10T10:42:10.790Z,993.52
2017-12-10T10:44:03.968Z,993.41
2017-12-10T10:45:03.952Z,993.37
2017-12-10T10:46:57.108Z,993.32
2017-12-10T10:47:57.105Z,993.36
2017-12-10T10:49:50.266Z,993.23
2017-12-10T10:50:50.261Z,993.14
2017-12-10T10:52:43.446Z,993.14
2017-12-10T10:53:43.435Z,993.17
2017-12-10T10:55:36.569Z,993.08
2017-12-10T10:56:36.578Z,993.07
2017-12-10T10:58:29.748Z,992.99
2017-12-10T10:59:29.752Z,992.89
2017-12-10T11:01:22.918Z,992.79
2017-12-10T11:02:23.639Z,992.77
2017-12-10T11:04:16.097Z,992.70
2017-12-10T11:05:16.103Z,992.67
2017-12-10T11:07:09.229Z,992.57
2017-12-10T11:08:09.247Z,992.50
2017-12-10T11:10:02.409Z,992.52
2017-12-10T11:11:02.402Z,992.53
2017-12-10T11:12:55.580Z,992.44
2017-12-10T11:13:55.565Z,992.39
2017-12-10T11:15:48.722Z,992.39
2017-12-10T11:16:48.740Z,992.37
2017-12-10T11:18:41.890Z,992.29
2017-12-10T11:19:41.885Z,992.25
2017-12-10T11:21:35.033Z,992.13
2017-12-10T11:22:35.048Z,992.11
2017-12-10T11:24:28.200Z,992.06
2017-12-10T11:25:28.205Z,992.09
2017-12-10T11:27:21.355Z,991.99
2017-12-10T11:28:21.354Z,991.99
2017-12-10T11:30:14.694Z,991.96
2017-12-10T11:31:14.678Z,991.98
2017-12-10T11:33:07.844Z,991.93
2017-12-10T11:34:07.846Z,991.91
2017-12-10T11:36:01.017Z,991.84
2017-12-10T11:37:01.020Z,991.78
2017-12-10T11:38:54.165Z,991.78
2017-12-10T11:39:54.185Z,991.74
2017-12-10T11:41:47.335Z,991.60
2017-12-10T11:42:47.334Z,991.56
2017-12-10T11:44:40.520Z,991.52
2017-12-10T11:45:40.493Z,991.44
2017-12-10T11:47:33.632Z,991.40
2017-12-10T11:48:33.643Z,991.39
2017-12-10T11:50:26.964Z,991.28
2017-12-10T11:51:26.834Z,991.25
2017-12-10T11:53:20.323Z,991.19
2017-12-10T11:54:20.167Z,991.17
2017-12-10T11:56:13.252Z,991.10
2017-12-10T11:57:13.213Z,991.09
2017-12-10T11:59:06.323Z,991.03
2017-12-10T12:00:06.336Z,991.04
2017-12-10T12:01:59.503Z,990.86
2017-12-10T12:02:59.496Z,990.79
2017-12-10T12:04:52.641Z,990.71
2017-12-10T12:05:52.645Z,990.64
2017-12-10T12:07:45.814Z,990.57
2017-12-10T12:08:45.822Z,990.53
2017-12-10T12:10:38.979Z,990.57
2017-12-10T12:11:39.010Z,990.60
2017-12-10T12:13:32.149Z,990.54
2017-12-10T12:14:32.141Z,990.54
2017-12-10T12:16:25.396Z,990.38
2017-12-10T12:17:25.390Z,990.41
2017-12-10T12:19:18.548Z,990.41
2017-12-10T12:20:18.581Z,990.36
2017-12-10T12:22:11.734Z,990.38
2017-12-10T12:23:11.724Z,990.25
2017-12-10T12:25:04.903Z,990.23
2017-12-10T12:26:04.902Z,990.16
2017-12-10T12:27:58.053Z,990.06
2017-12-10T12:28:58.057Z,990.04
2017-12-10T12:31:02.901Z,989.92
2017-12-10T12:32:02.892Z,989.88
2017-12-10T12:33:56.052Z,989.79
2017-12-10T12:34:56.082Z,989.69
2017-12-10T12:36:49.218Z,989.67
2017-12-10T12:37:49.222Z,989.68
2017-12-10T12:39:42.356Z,989.57
2017-12-10T12:40:42.392Z,989.54
2017-12-10T12:42:52.846Z,989.38
2017-12-10T12:43:52.849Z,989.41
2017-12-10T12:45:46.017Z,989.35
2017-12-10T12:46:46.026Z,989.30
2017-12-10T12:48:39.179Z,989.20
2017-12-10T12:49:39.180Z,989.22
2017-12-10T12:51:32.351Z,989.11
2017-12-10T12:52:32.359Z,989.14
2017-12-10T12:54:25.530Z,989.08
2017-12-10T12:55:25.529Z,989.06
2017-12-10T12:57:18.681Z,989.08
2017-12-10T12:58:18.677Z,989.06
2017-12-10T13:00:11.826Z,989.05
2017-12-10T13:01:11.847Z,989.03
2017-12-10T13:03:05.001Z,988.99
2017-12-10T13:04:05.098Z,988.99
2017-12-10T13:05:58.271Z,988.92
2017-12-10T13:06:58.158Z,988.89
2017-12-10T13:08:51.313Z,988.79
2017-12-10T13:09:51.310Z,988.80
2017-12-10T13:11:44.440Z,988.70
2017-12-10T13:12:44.462Z,988.68
2017-12-10T13:14:37.607Z,988.71
2017-12-10T13:15:37.594Z,988.65
2017-12-10T13:17:30.736Z,988.57
2017-12-10T13:18:30.738Z,988.63
2017-12-10T13:20:23.919Z,988.55
2017-12-10T13:21:23.920Z,988.45
2017-12-10T13:23:17.080Z,988.37
2017-12-10T13:24:17.078Z,988.34
2017-12-10T13:26:10.230Z,988.26
2017-12-10T13:27:10.249Z,988.26
2017-12-10T13:29:03.401Z,988.17
2017-12-10T13:30:03.407Z,988.08
2017-12-10T13:31:56.557Z,988.07
2017-12-10T13:32:56.564Z,988.07
2017-12-10T13:34:49.722Z,988.03
2017-12-10T13:35:49.740Z,987.98
2017-12-10T13:37:42.900Z,987.93
2017-12-10T13:38:42.887Z,987.88
2017-12-10T13:40:36.033Z,987.80
2017-12-10T13:41:36.046Z,987.80
2017-12-10T13:43:29.261Z,987.69
2017-12-10T13:44:29.217Z,987.62
2017-12-10T13:46:22.372Z,987.47
2017-12-10T13:47:22.366Z,987.46
2017-12-10T13:49:15.527Z,987.41
2017-12-10T13:50:15.521Z,987.37
2017-12-10T13:52:08.669Z,987.31
2017-12-10T13:53:08.686Z,987.28
2017-12-10T13:55:01.849Z,987.12
2017-12-10T13:56:01.846Z,987.04
2017-12-10T13:57:54.974Z,987.06
2017-12-10T13:58:55.006Z,986.99
2017-12-10T14:00:48.158Z,986.94
2017-12-10T14:01:48.206Z,986.89
2017-12-10T14:03:41.398Z,986.88
2017-12-10T14:04:41.358Z,986.89
2017-12-10T14:06:34.480Z,986.78
2017-12-10T14:07:34.489Z,986.77
2017-12-10T14:09:27.672Z,986.70
2017-12-10T14:10:27.654Z,986.57
2017-12-10T14:12:20.782Z,986.52
2017-12-10T14:13:20.841Z,986.47
2017-12-10T14:15:13.959Z,986.40
2017-12-10T14:16:13.971Z,986.34
2017-12-10T14:18:07.099Z,986.32
2017-12-10T14:19:07.115Z,986.29
2017-12-10T14:21:00.291Z,986.45
2017-12-10T14:22:00.293Z,986.42
2017-12-10T14:23:53.456Z,986.39
2017-12-10T14:24:53.450Z,986.32
2017-12-10T14:26:46.647Z,986.30
2017-12-10T14:27:46.591Z,986.24
2017-12-10T14:29:39.764Z,986.17
2017-12-10T14:30:39.773Z,986.11
2017-12-10T14:32:32.901Z,986.13
2017-12-10T14:33:32.909Z,986.04
2017-12-10T14:35:26.106Z,985.99
2017-12-10T14:36:26.103Z,985.98
2017-12-10T14:38:19.245Z,986.00
2017-12-10T14:39:19.250Z,985.98
2017-12-10T14:41:13.136Z,985.96
2017-12-10T14:42:12.404Z,985.98
2017-12-10T14:44:05.540Z,985.90
2017-12-10T14:45:05.549Z,985.85
2017-12-10T14:46:59.728Z,985.84
2017-12-10T14:47:59.701Z,985.91
2017-12-10T14:49:52.851Z,985.86
2017-12-10T14:50:52.863Z,985.85
2017-12-10T14:52:46.014Z,985.88
2017-12-10T14:53:46.024Z,985.83
2017-12-10T14:55:39.169Z,985.91
2017-12-10T14:56:39.171Z,985.76
2017-12-10T14:58:32.336Z,985.82
2017-12-10T14:59:32.344Z,985.83
2017-12-10T15:01:25.546Z,985.86
2017-12-10T15:02:25.525Z,985.85
2017-12-10T15:04:18.677Z,985.96
2017-12-10T15:05:18.679Z,985.96
2017-12-10T15:07:11.881Z,986.01
2017-12-10T15:08:11.849Z,985.95
2017-12-10T15:10:05.034Z,986.01
2017-12-10T15:11:05.111Z,986.02
2017-12-10T15:12:58.162Z,986.03
2017-12-10T15:13:58.160Z,985.96
2017-12-10T15:15:51.295Z,985.92
2017-12-10T15:16:51.311Z,986.04
2017-12-10T15:18:44.488Z,986.01
2017-12-10T15:19:44.462Z,986.01
2017-12-10T15:21:37.675Z,985.97
2017-12-10T15:22:37.674Z,985.95
2017-12-10T15:24:30.813Z,985.80
2017-12-10T15:25:30.895Z,985.73
2017-12-10T15:27:24.008Z,985.60
2017-12-10T15:28:23.990Z,985.44
2017-12-10T15:30:17.166Z,985.22
2017-12-10T15:31:17.185Z,985.16
2017-12-10T15:33:28.853Z,985.08
2017-12-10T15:34:28.884Z,985.09
2017-12-10T15:36:22.001Z,985.11
2017-12-10T15:37:22.029Z,985.06
2017-12-10T15:39:15.187Z,985.00
2017-12-10T15:40:15.176Z,985.00
2017-12-10T15:42:08.334Z,984.80
2017-12-10T15:43:08.360Z,984.77
2017-12-10T15:45:01.511Z,984.69
2017-12-10T15:46:01.502Z,984.64
2017-12-10T15:47:54.662Z,984.45
2017-12-10T15:48:54.658Z,984.41
2017-12-10T15:50:47.827Z,984.44
2017-12-10T15:51:47.851Z,984.35
2017-12-10T15:53:40.981Z,984.36
2017-12-10T15:54:40.989Z,984.41
2017-12-10T15:56:34.141Z,984.33
2017-12-10T15:57:34.148Z,984.31
2017-12-10T15:59:27.298Z,984.33
2017-12-10T16:00:27.308Z,984.39
2017-12-10T16:02:37.761Z,984.37
2017-12-10T16:03:37.759Z,984.37
2017-12-10T16:05:30.945Z,984.42
2017-12-10T16:06:30.926Z,984.43
2017-12-10T16:08:24.075Z,984.50
2017-12-10T16:09:24.081Z,984.53
2017-12-10T16:11:17.248Z,984.56
2017-12-10T16:12:17.259Z,984.65
2017-12-10T16:14:10.424Z,984.71
2017-12-10T16:15:10.405Z,984.74
2017-12-10T16:17:03.566Z,984.73
2017-12-10T16:18:03.566Z,984.81
2017-12-10T16:19:56.767Z,984.82
2017-12-10T16:20:56.722Z,984.84
2017-12-10T16:22:49.918Z,984.80
2017-12-10T16:23:49.935Z,984.84
2017-12-10T16:25:43.114Z,984.90
2017-12-10T16:26:43.225Z,984.84
2017-12-10T16:28:36.314Z,984.81
2017-12-10T16:29:36.277Z,984.78
2017-12-10T16:31:29.474Z,984.80
2017-12-10T16:32:29.463Z,984.79
2017-12-10T16:34:22.592Z,984.67
2017-12-10T16:35:22.593Z,984.65
2017-12-10T16:37:15.753Z,984.56
2017-12-10T16:38:15.757Z,984.54
2017-12-10T16:40:08.913Z,984.43
2017-12-10T16:41:08.897Z,984.41
2017-12-10T16:43:02.039Z,984.28
2017-12-10T16:44:02.062Z,984.25
2017-12-10T16:45:55.288Z,984.18
2017-12-10T16:46:55.264Z,984.13
2017-12-10T16:48:48.362Z,984.14
2017-12-10T16:49:48.376Z,984.09
2017-12-10T16:51:41.563Z,984.04
2017-12-10T16:52:41.543Z,984.01
2017-12-10T16:54:34.683Z,983.99
2017-12-10T16:55:34.691Z,983.98
2017-12-10T16:57:27.875Z,984.00
2017-12-10T16:58:27.871Z,984.09
2017-12-10T17:00:21.041Z,983.94
2017-12-10T17:01:21.036Z,983.98
2017-12-10T17:03:14.203Z,983.90
2017-12-10T17:04:14.196Z,983.86
2017-12-10T17:06:07.390Z,983.75
2017-12-10T17:07:07.400Z,983.77
2017-12-10T17:09:00.556Z,983.72
2017-12-10T17:10:00.557Z,983.69
2017-12-10T17:12:11.055Z,983.64
2017-12-10T17:13:11.029Z,983.56
2017-12-10T17:15:04.174Z,983.51
2017-12-10T17:16:04.183Z,983.44
2017-12-10T17:17:57.418Z,983.45
2017-12-10T17:18:57.350Z,983.43
2017-12-10T17:20:50.471Z,983.35
2017-12-10T17:21:50.478Z,983.33
2017-12-10T17:23:44.686Z,983.28
2017-12-10T17:24:44.659Z,983.26
2017-12-10T17:26:37.816Z,983.15
2017-12-10T17:27:37.824Z,983.11
2017-12-10T17:29:31.004Z,983.03
2017-12-10T17:30:30.972Z,982.96
2017-12-10T17:32:24.163Z,982.90
2017-12-10T17:33:24.148Z,982.93
2017-12-10T17:35:17.379Z,982.86
2017-12-10T17:36:17.295Z,982.84
2017-12-10T17:38:10.457Z,982.72
2017-12-10T17:39:10.462Z,982.73
2017-12-10T17:41:03.579Z,982.68
2017-12-10T17:42:03.586Z,982.65
2017-12-10T17:43:56.872Z,982.59
2017-12-10T17:44:56.756Z,982.59
2017-12-10T17:46:49.888Z,982.49
2017-12-10T17:47:49.911Z,982.46
2017-12-10T17:49:43.231Z,982.37
2017-12-10T17:50:43.068Z,982.34
2017-12-10T17:52:36.211Z,982.22
2017-12-10T17:53:36.243Z,982.20
2017-12-10T17:55:29.382Z,982.12